Time;durP1;ratioP1;P1;durP2;ratioP2;P2;SDS_P1;SDS_P2;PMS_P1;PMS_P2;Temp;Humidity;BMP_temperature;BMP_pressure;BME280_temperature;BME280_humidity;BME280_pressure;Samples;Min_cycle;Max_cycle;Signal;HPM_P1;HPM_P2
2022/09/08 00:00:27;;;;;;;7.50;3.10;;;;;;;16.91;100.00;95763.84;5060266;28;20492;-77
2022/09/08 00:02:54;;;;;;;5.75;2.50;;;;;;;17.01;100.00;95767.88;5064546;28;20029;-76
2022/09/08 00:05:24;;;;;;;5.80;3.00;;;;;;;16.88;100.00;95760.78;5061939;28;20071;-76
2022/09/08 00:07:53;;;;;;;6.00;2.55;;;;;;;16.73;100.00;95759.19;5045239;28;20044;-76
2022/09/08 00:10:19;;;;;;;6.32;3.10;;;;;;;16.72;100.00;95754.88;5061535;28;20032;-76
2022/09/08 00:12:46;;;;;;;5.22;2.70;;;;;;;16.54;100.00;95765.34;5066317;28;20037;-76
2022/09/08 00:15:12;;;;;;;7.28;3.03;;;;;;;16.49;100.00;95765.13;5064350;28;20127;-74
2022/09/08 00:17:38;;;;;;;6.25;2.53;;;;;;;16.48;100.00;95760.88;5063615;28;20029;-77
2022/09/08 00:20:06;;;;;;;10.60;3.75;;;;;;;16.41;100.00;95762.72;5065616;28;20055;-77
2022/09/08 00:22:31;;;;;;;8.27;3.58;;;;;;;16.36;100.00;95765.97;5063671;28;20024;-75
2022/09/08 00:24:57;;;;;;;7.85;3.15;;;;;;;16.38;100.00;95763.13;5064063;28;20416;-75
2022/09/08 00:27:23;;;;;;;7.97;3.00;;;;;;;16.40;100.00;95755.78;5061881;28;20024;-73
2022/09/08 00:29:48;;;;;;;8.93;3.92;;;;;;;16.38;100.00;95760.47;5064015;28;20028;-72
2022/09/08 00:32:14;;;;;;;6.93;2.92;;;;;;;16.36;100.00;95743.94;5063154;28;20134;-76
2022/09/08 00:34:39;;;;;;;6.60;2.60;;;;;;;16.44;100.00;95746.38;5048186;28;20024;-76
2022/09/08 00:37:05;;;;;;;7.50;3.10;;;;;;;16.51;100.00;95741.88;5063197;28;20490;-74
2022/09/08 00:39:31;;;;;;;6.32;2.53;;;;;;;16.46;100.00;95739.00;5055184;28;20032;-77
2022/09/08 00:41:57;;;;;;;4.97;2.42;;;;;;;16.53;100.00;95745.13;5048682;28;20035;-75
2022/09/08 00:44:49;;;;;;;5.97;2.38;;;;;;;16.53;100.00;95742.47;5049442;28;20032;-76
2022/09/08 00:47:43;;;;;;;4.80;2.38;;;;;;;16.64;100.00;95749.78;5066599;28;20059;-76
2022/09/08 00:50:22;;;;;;;4.55;1.92;;;;;;;16.64;100.00;95752.44;5042800;28;20058;-76
2022/09/08 00:52:52;;;;;;;7.70;2.63;;;;;;;16.73;100.00;95745.06;5045000;28;20029;-72
2022/09/08 00:55:20;;;;;;;3.65;1.75;;;;;;;16.80;100.00;95729.13;5065849;28;20033;-76
2022/09/08 00:57:46;;;;;;;4.63;2.00;;;;;;;16.84;100.00;95727.72;5062784;28;20599;-76
2022/09/08 01:00:16;;;;;;;5.35;2.00;;;;;;;16.83;100.00;95726.06;5042914;28;20404;-76
2022/09/08 01:02:45;;;;;;;3.25;1.98;;;;;;;16.77;100.00;95725.06;5062454;28;20150;-77
2022/09/08 01:05:14;;;;;;;5.88;2.47;;;;;;;16.75;100.00;95727.13;5060468;28;20484;-74
2022/09/08 01:13:35;;;;;;;3.97;1.80;;;;;;;16.82;100.00;95722.59;5065041;28;20025;-77
2022/09/08 01:16:02;;;;;;;7.40;3.00;;;;;;;16.79;100.00;95714.22;5055707;28;20029;-75
2022/09/08 01:18:28;;;;;;;3.85;1.75;;;;;;;16.63;100.00;95707.50;5056745;28;20091;-73
2022/09/08 01:21:26;;;;;;;6.03;2.30;;;;;;;16.69;100.00;95704.03;5040688;28;20036;-72
2022/09/08 01:24:41;;;;;;;5.20;2.60;;;;;;;16.55;100.00;95711.22;5063484;28;20127;-76
2022/09/08 01:27:26;;;;;;;5.60;2.30;;;;;;;16.52;100.00;95705.53;5062624;28;20049;-75
2022/09/08 01:30:02;;;;;;;3.60;2.00;;;;;;;16.57;100.00;95703.06;5070379;28;20055;-76
2022/09/08 01:32:32;;;;;;;6.78;2.60;;;;;;;16.50;100.00;95714.50;5061016;28;20029;-76
2022/09/08 01:34:58;;;;;;;4.40;2.03;;;;;;;16.52;100.00;95716.13;5062884;28;20047;-72
2022/09/08 01:37:24;;;;;;;7.53;2.80;;;;;;;16.56;100.00;95727.97;5045440;28;20033;-74
2022/09/08 01:39:50;;;;;;;4.60;2.15;;;;;;;16.62;100.00;95717.31;5054635;28;20032;-75
2022/09/08 01:42:16;;;;;;;5.15;2.55;;;;;;;16.67;100.00;95720.19;5048704;28;20033;-75
2022/09/08 01:44:43;;;;;;;6.75;2.30;;;;;;;16.66;100.00;95718.53;5066107;28;20039;-76
2022/09/08 01:47:10;;;;;;;4.90;2.38;;;;;;;16.63;100.00;95729.59;5051877;28;20030;-76
2022/09/08 01:49:36;;;;;;;4.90;2.35;;;;;;;16.60;100.00;95745.94;5058653;28;20032;-73
2022/09/08 01:52:02;;;;;;;4.93;2.35;;;;;;;16.57;100.00;95746.34;5066462;28;20039;-77
2022/09/08 01:54:27;;;;;;;3.78;2.15;;;;;;;16.59;100.00;95756.75;5058199;28;20021;-76
2022/09/08 01:56:57;;;;;;;7.35;2.00;;;;;;;16.52;100.00;95753.28;5045838;28;20039;-76
2022/09/08 01:59:23;;;;;;;4.35;1.80;;;;;;;16.52;100.00;95748.00;5067952;28;20043;-76
2022/09/08 02:01:49;;;;;;;4.47;1.85;;;;;;;16.49;100.00;95736.75;5073568;28;20033;-75
2022/09/08 02:04:16;;;;;;;3.88;2.08;;;;;;;16.41;100.00;95734.34;5067079;28;20032;-76
2022/09/08 02:06:42;;;;;;;2.17;1.48;;;;;;;16.50;100.00;95722.47;5041495;28;20029;-76
2022/09/08 02:09:08;;;;;;;8.32;1.98;;;;;;;16.43;100.00;95715.53;5068920;28;20409;-76
2022/09/08 02:11:33;;;;;;;4.07;1.73;;;;;;;16.37;100.00;95719.03;5059052;28;20032;-75
2022/09/08 02:13:59;;;;;;;3.80;1.77;;;;;;;16.38;100.00;95707.41;5068600;28;20025;-76
2022/09/08 02:16:25;;;;;;;4.93;2.20;;;;;;;16.31;100.00;95711.91;5069127;28;20032;-77
2022/09/08 02:18:55;;;;;;;5.65;2.00;;;;;;;16.21;100.00;95717.66;5062169;28;20108;-76
2022/09/08 02:21:21;;;;;;;3.80;1.70;;;;;;;16.22;100.00;95721.91;5071058;28;20033;-73
2022/09/08 02:23:48;;;;;;;3.45;1.33;;;;;;;16.21;100.00;95721.09;5076851;28;20025;-77
2022/09/08 02:26:18;;;;;;;3.22;1.42;;;;;;;16.23;100.00;95708.47;5071293;28;20035;-76
2022/09/08 02:28:45;;;;;;;3.05;1.35;;;;;;;16.24;100.00;95710.09;5071764;28;20514;-74
2022/09/08 02:31:11;;;;;;;4.50;1.70;;;;;;;16.31;100.00;95719.88;5065051;28;20060;-75
2022/09/08 02:33:37;;;;;;;2.78;1.30;;;;;;;16.19;100.00;95720.47;5068061;28;20032;-75
2022/09/08 02:36:03;;;;;;;5.40;1.70;;;;;;;16.24;100.00;95723.34;5069841;28;20055;-76
2022/09/08 02:38:29;;;;;;;2.95;1.48;;;;;;;16.23;100.00;95718.22;5052761;28;20103;-76
2022/09/08 02:40:55;;;;;;;3.95;1.48;;;;;;;16.16;100.00;95715.63;5051090;28;20040;-77
2022/09/08 02:43:22;;;;;;;2.85;1.33;;;;;;;16.04;100.00;95714.59;5072255;28;20498;-74
2022/09/08 02:45:48;;;;;;;4.65;1.63;;;;;;;16.06;100.00;95703.78;5065834;28;20036;-75
2022/09/08 02:48:14;;;;;;;3.70;1.50;;;;;;;15.87;100.00;95708.91;5067118;28;20028;-77
2022/09/08 02:50:40;;;;;;;3.95;1.60;;;;;;;15.92;100.00;95717.06;5057725;28;20039;-75
2022/09/08 02:53:06;;;;;;;3.65;1.50;;;;;;;15.97;100.00;95709.31;5068519;28;20059;-77
2022/09/08 02:55:36;;;;;;;4.20;1.50;;;;;;;15.95;100.00;95699.91;5069342;28;20808;-76
2022/09/08 02:58:02;;;;;;;4.30;1.45;;;;;;;15.99;100.00;95691.34;5053364;28;20115;-77
2022/09/08 03:00:32;;;;;;;3.60;1.13;;;;;;;16.07;100.00;95692.97;5071976;28;20178;-76
2022/09/08 03:02:58;;;;;;;2.72;1.10;;;;;;;16.12;100.00;95681.75;5068820;28;20105;-77
2022/09/08 03:05:24;;;;;;;1.70;1.02;;;;;;;16.12;100.00;95679.91;5069235;28;20032;-75
2022/09/08 03:07:51;;;;;;;2.85;1.00;;;;;;;16.13;100.00;95678.91;5065879;28;20040;-74
2022/09/08 03:10:20;;;;;;;1.95;0.85;;;;;;;16.15;100.00;95676.84;5049463;28;20029;-76
2022/09/08 03:12:46;;;;;;;2.90;0.93;;;;;;;16.15;100.00;95674.19;5050242;28;20040;-74
2022/09/08 03:15:12;;;;;;;2.85;1.00;;;;;;;16.10;100.00;95676.66;5066689;28;20029;-77
2022/09/08 03:17:38;;;;;;;3.50;1.10;;;;;;;16.12;100.00;95674.59;5065848;28;20032;-76
2022/09/08 03:20:04;;;;;;;3.65;1.13;;;;;;;16.11;100.00;95674.81;5067402;28;20048;-77
2022/09/08 03:22:29;;;;;;;2.05;1.15;;;;;;;16.03;100.00;95668.72;5068611;28;20447;-77
2022/09/08 03:24:56;;;;;;;5.07;1.70;;;;;;;16.10;100.00;95667.88;5063202;28;20039;-74
2022/09/08 03:27:22;;;;;;;3.45;1.40;;;;;;;16.10;100.00;95668.69;5062919;28;20117;-77
2022/09/08 03:29:48;;;;;;;3.72;1.70;;;;;;;16.09;100.00;95669.69;5064131;28;20040;-77
2022/09/08 03:32:13;;;;;;;6.38;1.70;;;;;;;16.08;100.00;95659.31;5049883;28;20504;-76
2022/09/08 03:34:39;;;;;;;2.53;1.50;;;;;;;16.07;100.00;95655.84;5050272;28;20094;-75
2022/09/08 03:37:04;;;;;;;4.38;2.25;;;;;;;16.02;100.00;95664.41;5067147;28;20581;-75
2022/09/08 03:39:30;;;;;;;3.50;1.80;;;;;;;16.01;100.00;95660.13;5068222;28;20028;-76
2022/09/08 03:41:56;;;;;;;4.75;2.13;;;;;;;15.97;100.00;95663.41;5065791;28;20068;-77
2022/09/08 03:44:21;;;;;;;3.00;2.00;;;;;;;16.02;100.00;95663.59;5070027;28;20082;-76
2022/09/08 03:46:47;;;;;;;3.75;2.05;;;;;;;16.01;100.00;95665.44;5064681;28;20024;-73
2022/09/08 03:49:12;;;;;;;8.38;5.68;;;;;;;16.04;100.00;95661.56;5062567;28;20047;-77
2022/09/08 03:51:38;;;;;;;6.15;3.50;;;;;;;16.01;100.00;95656.66;5050919;28;20045;-77
2022/09/08 03:56:51;;;;;;;3.90;2.38;;;;;;;16.05;100.00;95662.38;5063874;28;20052;-75
2022/09/08 03:59:17;;;;;;;3.60;2.42;;;;;;;16.07;100.00;95666.47;5067532;28;20024;-75
2022/09/08 04:01:43;;;;;;;4.45;2.25;;;;;;;16.05;100.00;95668.50;5064215;28;20485;-77
2022/09/08 04:04:08;;;;;;;4.97;2.00;;;;;;;16.03;100.00;95659.94;5064463;28;20088;-76
2022/09/08 04:06:34;;;;;;;7.25;2.50;;;;;;;16.02;100.00;95668.91;5061704;28;20035;-77
2022/09/08 04:09:00;;;;;;;5.32;2.50;;;;;;;15.93;100.00;95668.31;5049507;28;20029;-77
2022/09/08 04:11:25;;;;;;;4.63;2.22;;;;;;;16.00;100.00;95673.63;5061628;28;20742;-72
2022/09/08 04:13:51;;;;;;;3.70;2.10;;;;;;;15.98;100.00;95667.69;5064563;28;20032;-77
2022/09/08 04:16:18;;;;;;;4.57;2.55;;;;;;;15.97;100.00;95674.03;5070520;28;20024;-72
2022/09/08 04:18:44;;;;;;;3.90;2.50;;;;;;;15.98;100.00;95676.47;5064561;28;20067;-75
2022/09/08 04:21:11;;;;;;;6.05;2.65;;;;;;;16.00;100.00;95671.78;5062169;28;20090;-76
2022/09/08 04:23:37;;;;;;;5.18;2.20;;;;;;;15.93;100.00;95672.81;5065208;28;20078;-74
2022/09/08 04:26:10;;;;;;;4.88;2.13;;;;;;;15.97;100.00;95666.06;5052543;28;21225;-72
2022/09/08 04:28:36;;;;;;;3.28;2.13;;;;;;;15.91;100.00;95666.88;5065978;28;20044;-74
2022/09/08 04:31:11;;;;;;;4.47;1.90;;;;;;;15.82;100.00;95668.94;5066829;28;20538;-76
2022/09/08 04:33:38;;;;;;;4.28;2.10;;;;;;;15.92;100.00;95674.63;5060760;28;20017;-74
2022/09/08 04:36:30;;;;;;;4.45;2.22;;;;;;;15.87;100.00;95670.97;5050186;28;20504;-77
2022/09/08 04:38:59;;;;;;;2.92;1.73;;;;;;;15.83;100.00;95670.56;5061139;28;20135;-76
2022/09/08 04:41:26;;;;;;;3.25;1.90;;;;;;;15.83;100.00;95669.72;5062628;28;20127;-77
2022/09/08 04:43:53;;;;;;;3.03;1.60;;;;;;;15.87;100.00;95668.31;5054993;28;20040;-77
2022/09/08 04:46:19;;;;;;;2.55;1.55;;;;;;;15.86;100.00;95672.81;5055114;28;20025;-77
2022/09/08 04:48:45;;;;;;;3.42;1.50;;;;;;;15.88;100.00;95677.91;5045904;28;20051;-76
2022/09/08 04:51:15;;;;;;;4.85;1.60;;;;;;;15.85;100.00;95678.31;5065138;28;20776;-75
2022/09/08 04:53:42;;;;;;;3.17;1.40;;;;;;;15.75;100.00;95676.06;5056680;28;20021;-73
2022/09/08 04:56:09;;;;;;;3.05;1.50;;;;;;;15.78;100.00;95679.13;5059364;28;20517;-75
2022/09/08 04:58:37;;;;;;;3.22;1.80;;;;;;;15.60;100.00;95686.06;5064526;28;20043;-76
2022/09/08 05:01:08;;;;;;;2.10;1.42;;;;;;;15.68;100.00;95693.81;5067157;28;20036;-76
2022/09/08 05:03:35;;;;;;;2.40;1.50;;;;;;;15.69;100.00;95698.09;5067050;28;20029;-75
2022/09/08 05:06:12;;;;;;;3.08;1.48;;;;;;;15.61;100.00;95696.44;5058939;28;20036;-76
2022/09/08 05:08:40;;;;;;;3.08;1.40;;;;;;;15.63;100.00;95697.06;5061152;28;20121;-75
2022/09/08 05:11:06;;;;;;;2.35;1.40;;;;;;;15.65;100.00;95700.31;5065345;28;20028;-76
2022/09/08 05:13:31;;;;;;;2.78;1.38;;;;;;;15.61;100.00;95698.28;5066191;28;20039;-76
2022/09/08 05:16:09;;;;;;;2.25;1.25;;;;;;;15.69;100.00;95701.59;5056751;28;20033;-76
2022/09/08 05:18:35;;;;;;;4.25;1.63;;;;;;;15.63;100.00;95702.38;5066751;28;20029;-76
2022/09/08 05:21:02;;;;;;;3.00;1.30;;;;;;;15.70;100.00;95699.75;5070698;28;20036;-76
2022/09/08 05:23:28;;;;;;;3.50;1.23;;;;;;;15.70;100.00;95713.00;5062607;28;20516;-76
2022/09/08 05:26:01;;;;;;;5.75;1.38;;;;;;;15.63;100.00;95699.72;5059367;28;20111;-76
2022/09/08 05:28:29;;;;;;;2.28;1.10;;;;;;;15.65;100.00;95708.25;5066720;28;20516;-76
2022/09/08 05:30:56;;;;;;;2.30;1.33;;;;;;;15.68;100.00;95710.53;5060354;28;20036;-75
2022/09/08 05:33:22;;;;;;;2.20;1.10;;;;;;;15.68;100.00;95705.22;5064998;28;20049;-74
2022/09/08 05:35:48;;;;;;;2.72;1.30;;;;;;;15.62;100.00;95710.50;5064422;28;20036;-75
2022/09/08 05:38:14;;;;;;;2.72;1.40;;;;;;;15.64;100.00;95713.78;5044767;28;20037;-76
2022/09/08 05:40:40;;;;;;;3.55;1.40;;;;;;;15.67;100.00;95713.41;5054411;28;20039;-75
2022/09/08 05:43:06;;;;;;;3.38;1.50;;;;;;;15.59;100.00;95716.22;5063690;28;20728;-75
2022/09/08 05:45:36;;;;;;;1.58;0.98;;;;;;;15.61;100.00;95715.00;5062719;28;20054;-75
2022/09/08 05:48:02;;;;;;;2.63;1.17;;;;;;;15.67;100.00;95714.22;5057505;28;20036;-76
2022/09/08 05:50:33;;;;;;;4.28;1.30;;;;;;;15.61;100.00;95717.66;5063290;28;20024;-76
2022/09/08 05:52:59;;;;;;;2.38;0.98;;;;;;;15.61;100.00;95715.00;5064981;28;20032;-76
2022/09/08 05:55:25;;;;;;;2.80;1.38;;;;;;;15.65;100.00;95721.50;5063839;28;20394;-76
2022/09/08 05:57:50;;;;;;;1.63;0.90;;;;;;;15.61;100.00;95730.09;5067135;28;20484;-76
2022/09/08 06:00:16;;;;;;;3.17;1.20;;;;;;;15.60;100.00;95729.28;5051088;28;20036;-75
2022/09/08 06:02:42;;;;;;;2.17;1.33;;;;;;;15.64;100.00;95737.63;5070256;28;20037;-75
2022/09/08 06:05:08;;;;;;;2.92;1.40;;;;;;;15.56;100.00;95734.16;5069295;28;20056;-76
2022/09/08 06:07:33;;;;;;;4.30;1.02;;;;;;;15.61;100.00;95740.69;5067859;28;20027;-75
2022/09/08 06:09:59;;;;;;;6.57;1.58;;;;;;;15.64;100.00;95743.75;5066922;28;20121;-75
2022/09/08 06:12:24;;;;;;;3.80;1.20;;;;;;;15.59;100.00;95746.16;5063325;28;20075;-76
2022/09/08 06:14:50;;;;;;;2.45;1.10;;;;;;;15.63;100.00;95750.06;5069344;28;20029;-75
2022/09/08 06:17:16;;;;;;;3.33;1.30;;;;;;;15.59;100.00;95748.81;5066483;28;20032;-75
2022/09/08 06:19:42;;;;;;;2.13;1.10;;;;;;;15.53;100.00;95753.13;5079126;28;20020;-75
2022/09/08 06:22:07;;;;;;;4.43;1.42;;;;;;;15.51;100.00;95749.03;5071880;28;20116;-75
2022/09/08 06:24:33;;;;;;;3.78;1.75;;;;;;;15.51;100.00;95759.63;5069432;28;20029;-75
2022/09/08 06:27:37;;;;;;;4.15;1.77;;;;;;;15.59;100.00;95771.88;5069798;28;20134;-75
2022/09/08 06:30:14;;;;;;;2.83;1.08;;;;;;;15.56;100.00;95770.47;5067501;28;20052;-75
2022/09/08 06:32:54;;;;;;;4.13;1.13;;;;;;;15.49;100.00;95767.78;5066101;28;20726;-75
2022/09/08 06:35:30;;;;;;;3.35;1.25;;;;;;;15.57;100.00;95777.38;5063394;28;20040;-74
2022/09/08 06:38:15;;;;;;;3.85;1.42;;;;;;;15.56;100.00;95786.34;5065473;28;20037;-75
2022/09/08 06:40:48;;;;;;;3.45;1.30;;;;;;;15.53;100.00;95782.28;5061751;28;20040;-75
2022/09/08 06:43:55;;;;;;;6.03;1.02;;;;;;;15.48;100.00;95786.53;5065203;28;20056;-75
2022/09/08 06:46:26;;;;;;;1.23;1.13;;;;;;;15.55;100.00;95795.31;5062821;28;20038;-75
2022/09/08 06:48:53;;;;;;;7.13;1.30;;;;;;;15.49;100.00;95796.94;5065353;28;20091;-75
2022/09/08 06:51:31;;;;;;;2.67;1.35;;;;;;;15.54;100.00;95796.34;5067805;28;20044;-75
2022/09/08 06:54:09;;;;;;;3.53;1.13;;;;;;;15.49;100.00;95794.28;5067440;28;20024;-74
2022/09/08 06:57:16;;;;;;;2.10;1.25;;;;;;;15.51;100.00;95804.69;5065654;28;20093;-75
2022/09/08 06:59:44;;;;;;;3.22;1.00;;;;;;;15.50;100.00;95798.56;5059170;28;20032;-75
2022/09/08 07:02:21;;;;;;;3.70;1.10;;;;;;;15.45;100.00;95795.69;5066150;28;20504;-76
2022/09/08 07:05:29;;;;;;;1.60;1.10;;;;;;;15.35;100.00;95799.75;5066340;28;20065;-75
2022/09/08 07:08:13;;;;;;;1.75;0.90;;;;;;;15.37;100.00;95792.41;5053039;28;20037;-75
2022/09/08 07:11:08;;;;;;;2.33;1.27;;;;;;;15.44;100.00;95798.56;5062321;28;20040;-76
2022/09/08 07:13:55;;;;;;;1.83;1.08;;;;;;;15.32;100.00;95796.50;5053458;28;20034;-75
2022/09/08 07:16:38;;;;;;;2.28;1.30;;;;;;;15.39;100.00;95795.66;5061945;28;20040;-75
2022/09/08 07:19:28;;;;;;;3.25;1.23;;;;;;;15.50;100.00;95797.75;5066522;28;20024;-75
2022/09/08 07:22:02;;;;;;;3.92;1.15;;;;;;;15.50;100.00;95798.56;5062601;28;20036;-74
2022/09/08 07:24:34;;;;;;;2.92;1.10;;;;;;;15.59;100.00;95806.31;5061004;28;20599;-75
2022/09/08 07:27:04;;;;;;;1.95;1.10;;;;;;;15.56;100.00;95803.06;5070925;28;20040;-75
2022/09/08 07:29:37;;;;;;;1.85;1.20;;;;;;;15.62;100.00;95811.22;5068423;28;20033;-75
2022/09/08 07:32:02;;;;;;;2.67;1.33;;;;;;;15.66;100.00;95796.53;5067152;28;20032;-75
2022/09/08 07:34:33;;;;;;;2.55;1.25;;;;;;;15.66;100.00;95796.53;5047837;28;20032;-75
2022/09/08 07:37:16;;;;;;;2.45;1.20;;;;;;;15.59;100.00;95798.38;5054026;28;20517;-74
2022/09/08 07:40:02;;;;;;;2.88;1.15;;;;;;;15.59;100.00;95793.88;5063208;28;20098;-75
2022/09/08 07:42:28;;;;;;;1.58;0.98;;;;;;;15.51;100.00;95788.78;5060400;28;20116;-74
2022/09/08 07:44:59;;;;;;;3.50;1.25;;;;;;;15.55;100.00;95816.50;5060421;28;20032;-75
2022/09/08 07:47:37;;;;;;;3.03;1.00;;;;;;;15.60;100.00;95821.22;5062687;28;20025;-75
2022/09/08 07:50:53;;;;;;;1.95;1.10;;;;;;;15.45;100.00;95818.72;5066855;28;20067;-75
2022/09/08 07:53:14;;;;;;;0.85;0.68;;;;;;;15.47;100.00;95808.75;5069541;28;20033;-76
2022/09/08 07:55:41;;;;;;;2.65;1.00;;;;;;;15.44;100.00;95809.97;5058836;28;20047;-75
2022/09/08 07:58:19;;;;;;;2.03;1.05;;;;;;;15.50;100.00;95803.88;5066009;28;20033;-75
2022/09/08 08:00:55;;;;;;;1.23;0.80;;;;;;;15.61;100.00;95806.94;5059942;28;20036;-76
2022/09/08 08:03:20;;;;;;;1.98;0.80;;;;;;;15.72;100.00;95809.84;5061939;28;20037;-75
2022/09/08 08:05:50;;;;;;;1.52;0.77;;;;;;;15.85;100.00;95816.19;5054261;28;20048;-75
2022/09/08 08:08:31;;;;;;;2.47;1.15;;;;;;;16.01;100.00;95807.84;5054738;28;20042;-76
2022/09/08 08:11:03;;;;;;;3.35;1.10;;;;;;;16.09;100.00;95815.59;5055467;28;20040;-76
2022/09/08 08:13:48;;;;;;;2.22;0.88;;;;;;;16.22;100.00;95826.19;5044463;28;20486;-75
2022/09/08 08:16:21;;;;;;;4.47;0.80;;;;;;;16.26;100.00;95813.34;5054280;28;20597;-76
2022/09/08 08:19:21;;;;;;;1.85;0.90;;;;;;;16.49;100.00;95815.56;5063704;28;20031;-76
2022/09/08 08:22:01;;;;;;;1.30;0.73;;;;;;;16.73;100.00;95819.41;5064557;28;20086;-76
2022/09/08 08:24:51;;;;;;;1.48;0.80;;;;;;;16.84;100.00;95818.00;5059886;28;20768;-75
2022/09/08 08:27:34;;;;;;;1.92;0.77;;;;;;;16.62;100.00;95823.50;5062203;28;20828;-77
2022/09/08 08:30:19;;;;;;;1.73;0.73;;;;;;;16.91;100.00;95805.50;5063259;28;20040;-76
2022/09/08 08:32:57;;;;;;;2.15;0.70;;;;;;;17.16;100.00;95811.75;5056151;28;20067;-76
2022/09/08 08:35:42;;;;;;;3.05;1.55;;;;;;;17.24;100.00;95815.22;5066007;28;20036;-76
2022/09/08 08:38:15;;;;;;;3.35;1.05;;;;;;;17.62;100.00;95813.38;5065974;28;20038;-75
2022/09/08 08:40:57;;;;;;;2.65;0.95;;;;;;;18.47;100.00;95809.50;5066991;28;20082;-75
2022/09/08 08:43:58;;;;;;;1.75;0.80;;;;;;;18.25;100.00;95817.06;5061375;28;20029;-78
2022/09/08 08:46:59;;;;;;;2.47;0.77;;;;;;;18.14;100.00;95816.75;5061442;28;20106;-76
2022/09/08 08:50:21;;;;;;;2.42;0.82;;;;;;;18.98;100.00;95803.88;5047354;28;20769;-77
2022/09/08 08:53:12;;;;;;;2.35;0.80;;;;;;;19.34;100.00;95801.41;5055833;28;20783;-76
2022/09/08 08:56:01;;;;;;;0.98;0.50;;;;;;;19.50;100.00;95803.44;5073293;28;20048;-75
2022/09/08 08:58:44;;;;;;;1.00;0.60;;;;;;;19.07;100.00;95805.19;5066074;28;20025;-76
2022/09/08 09:01:37;;;;;;;1.35;0.88;;;;;;;18.44;100.00;95823.25;5067158;28;20032;-75
2022/09/08 09:04:21;;;;;;;1.75;0.75;;;;;;;17.90;100.00;95820.16;5066321;28;20137;-75
2022/09/08 09:06:59;;;;;;;1.30;0.70;;;;;;;17.63;100.00;95824.81;5066060;28;20478;-75
2022/09/08 09:10:10;;;;;;;3.47;0.57;;;;;;;17.67;100.00;95840.16;5065063;28;20036;-75
2022/09/08 09:13:09;;;;;;;3.47;0.95;;;;;;;17.46;100.00;95835.13;5042804;28;20032;-75
2022/09/08 09:16:04;;;;;;;1.70;0.70;;;;;;;17.62;100.00;95831.97;5061546;28;20036;-75
2022/09/08 09:19:09;;;;;;;1.45;0.60;;;;;;;17.97;100.00;95823.59;5079915;28;20040;-75
2022/09/08 09:21:49;;;;;;;1.42;0.60;;;;;;;18.28;100.00;95822.78;5044712;28;20037;-76
2022/09/08 09:24:36;;;;;;;1.63;0.77;;;;;;;18.14;100.00;95822.06;5060241;28;20071;-75
2022/09/08 09:27:13;;;;;;;1.85;1.02;;;;;;;18.91;100.00;95824.44;5053863;28;20036;-76
2022/09/08 09:29:39;;;;;;;2.60;0.80;;;;;;;20.07;100.00;95827.91;5067200;28;20041;-76
2022/09/08 09:32:30;;;;;;;1.65;0.80;;;;;;;18.98;100.00;95825.22;5065638;28;20086;-75
2022/09/08 09:35:01;;;;;;;3.05;0.70;;;;;;;18.81;100.00;95835.63;5065793;28;20048;-75
2022/09/08 09:37:36;;;;;;;2.13;0.90;;;;;;;19.88;100.00;95832.50;5056246;28;20060;-75
2022/09/08 09:40:25;;;;;;;1.52;0.68;;;;;;;21.33;100.00;95811.53;5047767;28;20059;-75
2022/09/08 09:43:55;;;;;;;1.20;0.70;;;;;;;21.43;100.00;95806.41;5057327;28;20477;-75
2022/09/08 09:46:59;;;;;;;3.85;0.90;;;;;;;20.81;100.00;95815.00;5015277;28;20095;-75
2022/09/08 09:49:39;;;;;;;1.90;0.90;;;;;;;19.58;100.00;95821.78;5055756;28;20484;-75
2022/09/08 09:52:22;;;;;;;1.80;0.70;;;;;;;19.18;100.00;95821.47;5064465;28;20033;-75
2022/09/08 09:55:02;;;;;;;1.90;0.80;;;;;;;19.37;100.00;95815.09;5062559;28;20025;-75
2022/09/08 09:57:49;;;;;;;2.33;1.10;;;;;;;19.06;100.00;95816.91;5065691;28;20168;-74
2022/09/08 10:00:20;;;;;;;0.88;0.55;;;;;;;19.04;100.00;95821.63;5045539;28;20040;-75
2022/09/08 10:03:10;;;;;;;2.38;0.68;;;;;;;18.82;100.00;95817.78;5046218;28;20029;-75
2022/09/08 10:06:13;;;;;;;2.42;0.80;;;;;;;18.92;100.00;95811.97;5051172;28;20127;-75
2022/09/08 10:09:18;;;;;;;2.40;0.75;;;;;;;19.10;100.00;95813.78;5047390;28;20036;-75
2022/09/08 10:12:11;;;;;;;3.72;1.67;;;;;;;19.11;100.00;95815.41;5067963;28;20032;-75
2022/09/08 10:14:43;;;;;;;2.78;1.50;;;;;;;19.32;100.00;95809.63;5049604;28;20024;-76
2022/09/08 10:17:45;;;;;;;2.28;0.90;;;;;;;19.24;100.00;95809.94;5075575;28;20047;-77
2022/09/08 10:20:14;;;;;;;1.88;0.60;;;;;;;18.63;100.00;95818.78;5059709;28;20043;-76
2022/09/08 10:23:18;;;;;;;3.10;0.90;;;;;;;18.51;100.00;95821.31;5056556;28;20025;-76
2022/09/08 10:26:20;;;;;;;2.40;0.80;;;;;;;18.56;100.00;95814.31;5059641;28;20090;-75
2022/09/08 10:29:23;;;;;;;1.48;0.70;;;;;;;18.95;100.00;95815.00;5068869;28;20078;-76
2022/09/08 10:32:00;;;;;;;0.90;0.55;;;;;;;19.46;100.00;95810.28;5064237;28;20761;-76
2022/09/08 10:34:29;;;;;;;1.83;1.00;;;;;;;19.73;100.00;95803.56;5065075;28;20067;-75
2022/09/08 10:37:13;;;;;;;3.13;0.80;;;;;;;21.25;100.00;95796.66;5049560;28;20058;-76
2022/09/08 10:40:04;;;;;;;2.17;0.88;;;;;;;22.62;100.00;95796.69;5067895;28;20039;-75
2022/09/08 10:42:44;;;;;;;1.63;0.70;;;;;;;22.60;100.00;95799.59;5054370;28;20040;-76
2022/09/08 10:45:24;;;;;;;1.42;0.80;;;;;;;23.46;100.00;95796.47;5080876;28;20042;-76
2022/09/08 10:48:08;;;;;;;1.27;0.73;;;;;;;22.94;100.00;95797.72;5067997;28;20123;-76
2022/09/08 10:50:35;;;;;;;2.00;0.57;;;;;;;21.91;100.00;95802.47;5073336;28;20037;-76
2022/09/08 10:53:19;;;;;;;2.20;1.02;;;;;;;21.96;100.00;95799.06;5068285;28;20029;-75
2022/09/08 10:56:13;;;;;;;1.52;0.80;;;;;;;21.97;100.00;95800.72;5054887;28;20032;-75
2022/09/08 10:59:08;;;;;;;1.98;0.82;;;;;;;21.65;100.00;95802.00;5058789;28;20040;-76
2022/09/08 11:02:08;;;;;;;3.65;0.77;;;;;;;22.31;100.00;95794.34;5068374;28;20086;-75
2022/09/08 11:05:14;;;;;;;3.35;0.82;;;;;;;23.50;97.91;95786.84;5072660;28;20056;-76
2022/09/08 11:07:58;;;;;;;3.30;0.80;;;;;;;22.80;100.00;95791.88;5051455;28;20072;-77
2022/09/08 11:10:54;;;;;;;1.35;0.65;;;;;;;22.99;100.00;95786.22;5066496;28;20031;-77
2022/09/08 11:13:29;;;;;;;2.50;0.50;;;;;;;23.82;97.16;95800.38;5073714;28;20030;-74
2022/09/08 11:16:16;;;;;;;3.10;0.70;;;;;;;23.10;99.79;95787.97;5068588;28;20037;-75
2022/09/08 11:19:00;;;;;;;1.27;0.52;;;;;;;23.10;100.00;95801.38;5052021;28;20036;-75
2022/09/08 11:21:47;;;;;;;4.28;1.02;;;;;;;22.86;100.00;95797.28;5066876;28;20036;-75
2022/09/08 11:24:38;;;;;;;1.52;0.85;;;;;;;22.29;100.00;95796.44;5064296;28;20028;-75
2022/09/08 11:27:12;;;;;;;2.20;0.55;;;;;;;21.79;100.00;95805.19;5068501;28;20051;-75
2022/09/08 11:29:39;;;;;;;1.08;0.73;;;;;;;21.97;100.00;95808.75;5070188;28;20425;-75
2022/09/08 11:32:28;;;;;;;4.85;1.27;;;;;;;21.50;100.00;95803.59;5048002;28;20523;-75
2022/09/08 11:35:44;;;;;;;2.22;1.10;;;;;;;21.62;100.00;95807.03;5054763;28;20135;-76
2022/09/08 11:38:23;;;;;;;1.33;0.60;;;;;;;23.08;92.40;95802.72;5067756;28;20549;-78
2022/09/08 11:40:59;;;;;;;2.17;0.60;;;;;;;23.96;86.52;95798.09;5070896;28;20040;-77
2022/09/08 11:43:28;;;;;;;4.57;1.10;;;;;;;24.67;80.44;95792.50;5066732;28;20050;-76
2022/09/08 11:46:20;;;;;;;1.20;0.50;;;;;;;23.37;88.60;95797.94;5053827;28;20036;-77
2022/09/08 11:49:22;;;;;;;3.58;0.80;;;;;;;22.55;97.24;95802.22;5068728;28;20033;-77
2022/09/08 11:52:03;;;;;;;2.63;1.00;;;;;;;22.41;97.44;95806.28;5066433;28;20702;-76
2022/09/08 11:54:48;;;;;;;1.45;0.50;;;;;;;23.06;94.86;95800.25;5049525;28;20457;-76
2022/09/08 11:57:32;;;;;;;1.27;0.65;;;;;;;22.53;94.37;95798.94;5051130;28;20036;-79
2022/09/08 12:00:10;;;;;;;2.55;0.82;;;;;;;21.73;100.00;95806.19;5065413;28;20478;-75
2022/09/08 12:03:06;;;;;;;1.45;0.57;;;;;;;21.72;98.91;95815.25;5067598;28;20047;-77
2022/09/08 12:06:09;;;;;;;2.35;0.60;;;;;;;20.99;100.00;95821.25;5066641;28;20040;-78
2022/09/08 12:08:45;;;;;;;1.27;0.40;;;;;;;20.94;100.00;95830.78;5063640;28;20132;-77
2022/09/08 12:11:30;;;;;;;2.42;0.50;;;;;;;20.85;100.00;95826.84;5064362;28;20028;-79
2022/09/08 12:14:27;;;;;;;1.65;0.70;;;;;;;20.81;100.00;95830.22;5068791;28;20047;-77